Time;durP1;ratioP1;P1;durP2;ratioP2;P2;SDS_P1;SDS_P2;PMS_P1;PMS_P2;Temp;Humidity;BMP_temperature;BMP_pressure;BME280_temperature;BME280_humidity;BME280_pressure;Samples;Min_cycle;Max_cycle;Signal;HPM_P1;HPM_P2
2022/10/10 00:00:03;;;;;;;16.63;10.40;;;;;;;14.87;71.76;100311.84;300807;32;5466;-75
2022/10/10 00:00:14;;;;;;;16.08;10.23;;;;;;;14.85;71.85;100303.16;298989;32;5438;-75
2022/10/10 00:00:24;;;;;;;16.47;10.67;;;;;;;14.84;72.30;100308.50;294240;33;7015;-75
2022/10/10 00:00:35;;;;;;;17.30;11.20;;;;;;;14.82;71.95;100311.19;294710;33;1576;-75
2022/10/10 00:00:45;;;;;;;17.83;11.10;;;;;;;14.81;71.83;100301.59;295992;33;6120;-74
2022/10/10 00:00:56;;;;;;;18.50;11.38;;;;;;;14.83;71.93;100307.63;294172;33;6214;-74
2022/10/10 00:01:06;;;;;;;18.80;11.60;;;;;;;14.84;71.70;100311.97;292022;33;1368;-74
2022/10/10 00:01:17;;;;;;;18.05;11.80;;;;;;;14.85;71.97;100305.78;291443;33;4991;-75
2022/10/10 00:01:30;;;;;;;16.90;11.03;;;;;;;14.87;71.75;100305.72;289782;33;5363;-75
2022/10/10 00:01:41;;;;;;;16.73;10.63;;;;;;;14.88;71.49;100308.28;286355;34;8010;-74
2022/10/10 00:01:51;;;;;;;17.13;10.57;;;;;;;14.89;71.72;100304.72;283577;34;842;-75
2022/10/10 00:02:01;;;;;;;16.58;10.43;;;;;;;14.90;71.61;100306.41;279341;34;7335;-74
2022/10/10 00:03:41;;;;;;;21.22;11.40;;;;;;;14.90;71.90;100306.41;2497112;27;20258;-75
2022/10/10 00:03:52;;;;;;;17.08;9.85;;;;;;;14.89;71.72;100304.72;352949;27;848;-75
2022/10/10 00:04:02;;;;;;;17.00;9.97;;;;;;;14.93;71.95;100305.44;346210;28;1451;-75
2022/10/10 00:04:13;;;;;;;17.92;10.63;;;;;;;14.91;72.17;100305.50;347522;28;1241;-75
2022/10/10 00:04:23;;;;;;;16.92;9.98;;;;;;;14.91;72.12;100310.75;349481;28;836;-74
2022/10/10 00:04:34;;;;;;;17.53;10.30;;;;;;;14.90;71.98;100306.41;347432;28;1374;-74
2022/10/10 00:04:44;;;;;;;15.35;9.13;;;;;;;14.92;72.19;100315.13;347486;28;873;-75
2022/10/10 00:04:54;;;;;;;15.80;9.57;;;;;;;14.92;71.96;100308.97;348861;28;1224;-75
2022/10/10 00:05:05;;;;;;;14.80;8.77;;;;;;;14.93;72.12;100316.81;346034;28;943;-75
2022/10/10 00:05:16;;;;;;;15.20;9.57;;;;;;;14.93;71.95;100314.19;346297;28;1776;-75
2022/10/10 00:05:26;;;;;;;15.45;9.35;;;;;;;14.90;72.17;100316.97;347672;28;1288;-75
2022/10/10 00:05:37;;;;;;;16.20;10.27;;;;;;;14.91;72.05;100313.41;346647;28;1219;-75
2022/10/10 00:05:47;;;;;;;17.77;10.55;;;;;;;14.90;72.12;100311.69;345930;28;1265;-75
2022/10/10 00:05:57;;;;;;;18.50;11.10;;;;;;;14.90;72.72;100308.19;345166;28;1575;-75
2022/10/10 00:06:08;;;;;;;17.85;10.20;;;;;;;14.88;72.26;100308.28;348415;28;1306;-75
2022/10/10 00:06:18;;;;;;;17.63;9.93;;;;;;;14.85;72.54;100313.69;348931;28;1008;-75
2022/10/10 00:06:29;;;;;;;16.33;9.47;;;;;;;14.83;72.83;100314.69;347400;28;805;-75
2022/10/10 00:06:39;;;;;;;16.65;10.35;;;;;;;14.81;73.19;100317.41;347347;28;1759;-75
2022/10/10 00:06:50;;;;;;;18.27;12.00;;;;;;;14.82;73.05;100319.09;349017;28;812;-75
2022/10/10 00:07:00;;;;;;;19.10;11.97;;;;;;;14.81;73.20;100317.41;348809;28;872;-75
2022/10/10 00:07:10;;;;;;;19.15;11.45;;;;;;;14.81;73.38;100317.41;346029;28;976;-75
2022/10/10 00:07:21;;;;;;;17.97;10.30;;;;;;;14.80;73.66;100320.94;346741;28;1305;-75
2022/10/10 00:07:31;;;;;;;16.40;9.68;;;;;;;14.78;73.44;100311.41;348581;28;2549;-75
2022/10/10 00:07:43;;;;;;;16.37;9.77;;;;;;;14.78;73.38;100314.91;344615;28;1281;-75
2022/10/10 00:07:53;;;;;;;16.30;9.40;;;;;;;14.79;73.68;100318.38;347125;28;1442;-75
2022/10/10 00:08:04;;;;;;;16.23;9.77;;;;;;;14.81;73.32;100314.75;348044;28;1247;-76
2022/10/10 00:08:14;;;;;;;17.00;10.40;;;;;;;14.82;73.69;100313.84;346173;28;1687;-75
2022/10/10 00:08:25;;;;;;;16.95;10.60;;;;;;;14.82;73.60;100313.84;344753;28;829;-75
2022/10/10 00:08:35;;;;;;;17.13;10.10;;;;;;;14.84;73.32;100317.25;344613;28;1739;-75
2022/10/10 00:08:46;;;;;;;16.73;9.45;;;;;;;14.85;73.04;100313.69;344709;28;825;-75
2022/10/10 00:08:56;;;;;;;16.17;8.97;;;;;;;14.83;73.21;100310.28;342744;28;1295;-76
2022/10/10 00:09:07;;;;;;;16.05;9.20;;;;;;;14.85;72.99;100312.84;342783;28;1273;-76
2022/10/10 00:09:17;;;;;;;15.67;9.27;;;;;;;14.84;73.39;100317.25;342094;28;1557;-76
2022/10/10 00:09:28;;;;;;;16.40;9.63;;;;;;;14.83;73.55;100314.69;343292;28;1241;-76
2022/10/10 00:09:38;;;;;;;16.23;9.27;;;;;;;14.85;73.53;100308.41;343462;28;1274;-76
2022/10/10 00:09:48;;;;;;;15.35;8.75;;;;;;;14.85;73.02;100318.97;344480;28;1440;-76
2022/10/10 00:09:59;;;;;;;17.07;9.50;;;;;;;14.84;73.16;100317.25;341507;28;1469;-75
2022/10/10 00:10:09;;;;;;;17.13;9.85;;;;;;;14.84;73.14;100316.41;344390;28;1312;-75
2022/10/10 00:10:20;;;;;;;18.00;10.43;;;;;;;14.84;73.32;100317.25;341685;28;1526;-75
2022/10/10 00:10:30;;;;;;;16.40;9.73;;;;;;;14.85;73.34;100321.59;340596;28;1518;-75
2022/10/10 00:10:40;;;;;;;15.97;9.30;;;;;;;14.84;73.34;100322.53;339375;29;1335;-76
2022/10/10 00:10:51;;;;;;;15.80;9.13;;;;;;;14.81;73.46;100317.41;339440;29;1581;-75
2022/10/10 00:11:02;;;;;;;16.33;9.53;;;;;;;14.81;73.59;100317.41;342758;28;1283;-75
2022/10/10 00:11:13;;;;;;;17.33;10.10;;;;;;;14.80;73.38;100320.09;341977;28;1027;-75
2022/10/10 00:11:24;;;;;;;16.27;9.82;;;;;;;14.79;73.09;100319.25;339962;28;3320;-74
2022/10/10 00:11:34;;;;;;;25.23;10.73;;;;;;;14.78;74.09;100312.25;335693;29;3075;-74
2022/10/10 00:11:45;;;;;;;24.40;10.13;;;;;;;14.79;73.66;100316.59;336304;29;2669;-75
2022/10/10 00:11:55;;;;;;;27.93;12.17;;;;;;;14.78;73.64;100320.16;335747;29;1709;-75
2022/10/10 00:12:05;;;;;;;19.10;11.07;;;;;;;14.79;73.66;100323.66;337681;29;3080;-76
2022/10/10 00:12:16;;;;;;;18.90;10.80;;;;;;;14.78;73.66;100316.69;338972;29;1401;-74
2022/10/10 00:12:26;;;;;;;15.88;9.20;;;;;;;14.80;73.52;100314.84;339343;29;1001;-75
2022/10/10 00:12:37;;;;;;;16.30;9.97;;;;;;;14.81;73.25;100320.03;338343;29;1221;-75
2022/10/10 00:12:47;;;;;;;17.75;10.55;;;;;;;14.79;73.63;100315.75;337068;29;1002;-76
2022/10/10 00:12:57;;;;;;;17.70;10.80;;;;;;;14.82;73.44;100318.25;338114;29;1257;-75
2022/10/10 00:13:08;;;;;;;17.23;10.25;;;;;;;14.83;73.43;100320.81;337896;29;1202;-75
2022/10/10 00:13:18;;;;;;;15.83;9.83;;;;;;;14.85;73.65;100312.84;337502;29;1447;-75
2022/10/10 00:13:29;;;;;;;17.05;9.80;;;;;;;14.84;73.61;100316.41;336281;29;980;-76
2022/10/10 00:13:39;;;;;;;16.80;9.83;;;;;;;14.81;73.74;100316.53;340136;28;1581;-75
2022/10/10 00:13:50;;;;;;;16.33;9.65;;;;;;;14.80;73.43;100320.94;337646;29;1730;-75
2022/10/10 00:14:01;;;;;;;15.55;9.15;;;;;;;14.79;73.22;100324.50;336648;29;1758;-75
2022/10/10 00:14:11;;;;;;;15.00;8.90;;;;;;;14.77;73.79;100321.09;334316;29;1387;-76
2022/10/10 00:14:21;;;;;;;16.25;9.13;;;;;;;14.80;73.78;100325.38;332219;29;1709;-74
2022/10/10 00:14:32;;;;;;;20.33;11.33;;;;;;;14.78;73.66;100322.81;331605;29;1559;-75
2022/10/10 00:14:42;;;;;;;22.20;13.37;;;;;;;14.78;73.53;100319.31;332952;29;870;-75
2022/10/10 00:14:52;;;;;;;21.77;13.32;;;;;;;14.77;73.37;100314.97;333966;29;1442;-75
2022/10/10 00:15:03;;;;;;;19.07;12.47;;;;;;;14.78;73.36;100320.16;335502;29;854;-75
2022/10/10 00:15:14;;;;;;;16.50;10.02;;;;;;;14.79;73.52;100319.25;332870;29;1684;-75
2022/10/10 00:15:24;;;;;;;16.23;10.07;;;;;;;14.78;73.42;100322.81;332846;29;1377;-76
2022/10/10 00:15:35;;;;;;;15.87;9.77;;;;;;;14.77;73.53;100325.50;332002;29;1852;-75
2022/10/10 00:15:45;;;;;;;16.30;10.13;;;;;;;14.77;73.69;100323.72;331223;29;2332;-75
2022/10/10 00:15:55;;;;;;;16.27;9.90;;;;;;;14.77;73.27;100317.59;329352;30;1153;-75
2022/10/10 00:16:06;;;;;;;15.13;9.20;;;;;;;14.77;73.50;100315.81;326176;30;1971;-75
2022/10/10 00:16:17;;;;;;;16.20;9.57;;;;;;;14.79;73.71;100323.66;324281;30;2449;-75
2022/10/10 00:16:27;;;;;;;15.85;9.48;;;;;;;14.79;73.30;100323.66;325369;30;1197;-75
2022/10/10 00:16:37;;;;;;;15.93;10.10;;;;;;;14.78;73.54;100328.06;322689;30;2455;-75
2022/10/10 00:16:48;;;;;;;16.70;10.47;;;;;;;14.80;73.34;100322.75;322371;30;2206;-75
2022/10/10 00:16:58;;;;;;;17.63;11.67;;;;;;;14.79;73.40;100319.25;320604;30;1523;-75
2022/10/10 00:17:09;;;;;;;18.90;11.73;;;;;;;14.78;73.45;100325.44;318468;30;1247;-75
2022/10/10 00:17:19;;;;;;;18.00;11.03;;;;;;;14.79;73.42;100328.94;317012;30;1490;-75
2022/10/10 00:17:30;;;;;;;17.77;10.47;;;;;;;14.80;73.33;100320.94;316941;31;1918;-75
2022/10/10 00:17:42;;;;;;;16.63;9.97;;;;;;;14.82;73.16;100318.25;315132;31;1309;-75
2022/10/10 00:17:52;;;;;;;16.88;9.93;;;;;;;14.83;73.06;100317.31;318620;30;3403;-75
2022/10/10 00:18:03;;;;;;;15.67;9.37;;;;;;;14.83;73.32;100323.44;314464;31;3344;-75
2022/10/10 00:18:13;;;;;;;15.00;8.75;;;;;;;14.83;73.15;100318.19;311596;31;1163;-75
2022/10/10 00:18:24;;;;;;;15.67;9.97;;;;;;;14.83;73.28;100320.81;309738;31;2938;-75
2022/10/10 00:18:34;;;;;;;16.47;10.73;;;;;;;14.83;73.26;100320.81;311401;31;3517;-75
2022/10/10 00:18:45;;;;;;;16.40;10.73;;;;;;;14.84;73.34;100316.41;310420;31;4129;-75
2022/10/10 00:18:55;;;;;;;15.57;9.57;;;;;;;14.84;73.11;100321.66;306210;32;1372;-75
2022/10/10 00:19:06;;;;;;;16.35;9.48;;;;;;;14.81;73.32;100317.41;304073;32;2819;-75
2022/10/10 00:19:16;;;;;;;16.50;10.13;;;;;;;14.81;73.17;100319.16;303157;32;1649;-75
2022/10/10 00:19:26;;;;;;;17.20;10.40;;;;;;;14.82;73.33;100318.25;304092;32;1325;-75
2022/10/10 00:19:37;;;;;;;17.13;10.40;;;;;;;14.81;73.17;100324.44;304464;32;2792;-75
2022/10/10 00:19:47;;;;;;;17.88;11.07;;;;;;;14.80;73.04;100320.94;303722;32;2774;-75
2022/10/10 00:19:58;;;;;;;23.70;14.97;;;;;;;14.78;73.23;100322.81;301617;32;826;-75
2022/10/10 00:20:12;;;;;;;24.30;15.63;;;;;;;14.78;73.02;100322.81;298769;32;4191;-75
2022/10/10 00:20:22;;;;;;;18.58;11.50;;;;;;;14.77;72.85;100321.09;299010;32;4510;-74
2022/10/10 00:20:33;;;;;;;17.70;11.27;;;;;;;14.77;72.79;100321.09;297237;32;4953;-73
2022/10/10 00:20:43;;;;;;;17.20;11.18;;;;;;;14.77;73.13;100322.88;295508;33;4376;-76
2022/10/10 00:20:54;;;;;;;16.60;10.67;;;;;;;14.77;72.80;100323.72;296185;33;4900;-75
2022/10/10 00:21:04;;;;;;;19.02;11.50;;;;;;;14.76;73.18;100324.66;294298;33;4677;-75
2022/10/10 00:21:15;;;;;;;18.97;11.10;;;;;;;14.76;72.58;100327.28;292040;33;2543;-74
2022/10/10 00:21:25;;;;;;;19.08;11.07;;;;;;;14.75;73.05;100317.69;289322;34;1544;-74
2022/10/10 00:21:35;;;;;;;16.83;10.70;;;;;;;14.75;73.04;100328.22;288968;33;2569;-74
2022/10/10 00:21:46;;;;;;;17.08;11.05;;;;;;;14.77;73.16;100325.50;290704;33;3283;-74
2022/10/10 00:21:56;;;;;;;16.57;10.87;;;;;;;14.74;73.04;100321.25;289686;34;1792;-74
2022/10/10 00:22:07;;;;;;;15.52;9.75;;;;;;;14.73;72.95;100322.16;286790;34;4623;-74
2022/10/10 00:22:17;;;;;;;15.87;9.43;;;;;;;14.72;72.94;100325.75;286720;33;5388;-75
2022/10/10 00:22:27;;;;;;;15.90;9.73;;;;;;;14.72;73.09;100327.53;289951;34;1585;-75
2022/10/10 00:22:38;;;;;;;16.73;10.80;;;;;;;14.69;72.82;100323.25;290854;33;6580;-75
2022/10/10 00:22:48;;;;;;;17.42;11.20;;;;;;;14.68;73.05;100331.22;289711;33;6061;-75
2022/10/10 00:22:59;;;;;;;19.93;12.60;;;;;;;14.68;73.27;100325.97;292090;33;841;-75
2022/10/10 00:23:09;;;;;;;18.95;11.95;;;;;;;14.67;72.62;100325.13;288848;33;6804;-75
2022/10/10 00:23:20;;;;;;;17.07;11.20;;;;;;;14.68;72.47;100337.34;288828;34;6513;-75
2022/10/10 00:23:30;;;;;;;15.73;9.95;;;;;;;14.67;72.41;100330.38;288755;34;5426;-75
2022/10/10 00:23:41;;;;;;;18.13;10.70;;;;;;;14.65;72.65;100324.31;289098;34;1457;-75
2022/10/10 00:23:51;;;;;;;19.50;11.88;;;;;;;14.67;72.58;100330.38;285939;34;3764;-75
2022/10/10 00:24:01;;;;;;;19.13;11.63;;;;;;;14.67;72.67;100327.75;286218;34;5912;-75
2022/10/10 00:24:12;;;;;;;18.30;11.68;;;;;;;14.68;72.61;100337.34;287312;34;667;-75
2022/10/10 00:24:22;;;;;;;22.60;13.10;;;;;;;14.68;72.21;100332.09;286720;34;6415;-75
2022/10/10 00:24:33;;;;;;;21.98;12.60;;;;;;;14.69;72.54;100333.81;283714;34;7312;-75
2022/10/10 00:24:43;;;;;;;22.20;12.97;;;;;;;14.65;72.74;100329.59;281573;35;1304;-74
2022/10/10 00:24:53;;;;;;;16.63;10.65;;;;;;;14.65;72.45;100334.88;280784;34;9056;-74
2022/10/10 00:25:05;;;;;;;16.50;11.20;;;;;;;14.63;72.68;100331.44;280406;34;9199;-74
2022/10/10 00:25:15;;;;;;;14.98;10.13;;;;;;;14.62;72.50;100337.63;280025;35;11065;-74
2022/10/10 00:25:26;;;;;;;14.57;9.80;;;;;;;14.59;72.58;100329.88;278017;35;1988;-74
2022/10/10 00:27:00;;;;;;;17.32;9.50;;;;;;;14.66;72.05;100333.94;2501520;27;20268;-74
2022/10/10 00:27:10;;;;;;;12.77;7.97;;;;;;;14.63;72.23;100339.34;354401;27;917;-75
2022/10/10 00:27:21;;;;;;;11.20;7.05;;;;;;;14.66;71.89;100335.72;349941;28;1338;-76
2022/10/10 00:27:31;;;;;;;11.53;8.27;;;;;;;14.67;72.19;100337.44;347372;28;1223;-74
2022/10/10 00:27:42;;;;;;;12.63;8.73;;;;;;;14.66;71.74;100339.22;348675;28;1590;-74
2022/10/10 00:27:52;;;;;;;12.93;9.07;;;;;;;14.62;72.14;100343.75;350226;28;761;-74
2022/10/10 00:28:03;;;;;;;13.25;8.85;;;;;;;14.59;72.44;100337.78;351542;28;1365;-74
2022/10/10 00:28:13;;;;;;;15.80;9.73;;;;;;;14.57;72.29;100340.47;348680;28;1502;-75
2022/10/10 00:28:25;;;;;;;15.53;9.43;;;;;;;14.55;72.23;100334.44;348684;28;1300;-75
2022/10/10 00:28:37;;;;;;;13.98;8.80;;;;;;;14.54;72.51;100339.75;350337;28;1255;-75
2022/10/10 00:28:47;;;;;;;13.10;8.25;;;;;;;14.53;72.44;100340.69;350142;28;1715;-74
2022/10/10 00:28:58;;;;;;;15.87;8.70;;;;;;;14.52;72.73;100341.63;350092;28;1240;-74
2022/10/10 00:29:08;;;;;;;16.95;8.65;;;;;;;14.52;72.63;100341.63;350132;28;1216;-74
2022/10/10 00:29:18;;;;;;;17.00;8.70;;;;;;;14.54;72.46;100337.13;349938;28;1558;-74
2022/10/10 00:29:29;;;;;;;14.13;8.52;;;;;;;14.55;72.57;100333.56;348764;28;863;-74
2022/10/10 00:29:39;;;;;;;13.90;8.53;;;;;;;14.53;72.60;100344.19;349518;28;855;-74
2022/10/10 00:29:50;;;;;;;13.90;8.38;;;;;;;14.55;72.33;100346.75;350235;28;3370;-74
2022/10/10 00:30:00;;;;;;;12.23;8.30;;;;;;;14.54;72.68;100343.25;349612;28;3580;-74
2022/10/10 00:30:11;;;;;;;13.32;8.90;;;;;;;14.55;72.18;100346.75;350006;28;1986;-74
2022/10/10 00:30:21;;;;;;;14.07;9.93;;;;;;;14.55;72.38;100341.47;349823;28;1799;-76
2022/10/10 00:30:31;;;;;;;16.23;10.77;;;;;;;14.57;72.55;100344.91;348726;28;3215;-76
2022/10/10 00:30:42;;;;;;;16.20;10.60;;;;;;;14.56;72.57;100343.19;349958;28;930;-75
2022/10/10 00:30:53;;;;;;;19.50;12.15;;;;;;;14.57;72.52;100339.63;350099;28;1131;-75
2022/10/10 00:31:07;;;;;;;19.57;13.47;;;;;;;14.56;72.52;100344.03;348833;28;851;-75
2022/10/10 00:31:18;;;;;;;18.98;13.38;;;;;;;14.58;72.29;100339.56;345779;28;1292;-75
2022/10/10 00:31:28;;;;;;;13.55;9.23;;;;;;;14.60;72.44;100345.63;349837;28;1303;-75
2022/10/10 00:31:38;;;;;;;13.00;8.37;;;;;;;14.62;72.48;100338.50;347416;28;1399;-75
2022/10/10 00:31:49;;;;;;;13.23;8.25;;;;;;;14.61;72.57;100342.06;343613;28;1456;-74
2022/10/10 00:31:59;;;;;;;15.37;9.20;;;;;;;14.61;72.58;100338.56;343718;28;1055;-74
2022/10/10 00:32:10;;;;;;;13.80;8.48;;;;;;;14.60;72.62;100344.75;346630;28;1323;-75
2022/10/10 00:32:20;;;;;;;15.67;9.43;;;;;;;14.60;72.21;100339.50;344496;28;1226;-75
2022/10/10 00:32:30;;;;;;;13.40;8.50;;;;;;;14.60;72.37;100345.63;343264;28;1308;-75
2022/10/10 00:32:41;;;;;;;13.57;8.67;;;;;;;14.60;72.52;100334.22;344829;28;1602;-75
2022/10/10 00:32:51;;;;;;;12.70;8.70;;;;;;;14.59;72.30;100337.78;346492;28;1284;-76
2022/10/10 00:33:02;;;;;;;14.45;10.63;;;;;;;14.57;72.55;100337.00;343291;28;1374;-74
2022/10/10 00:33:12;;;;;;;15.00;11.00;;;;;;;14.56;72.48;100343.19;346665;28;1394;-76
2022/10/10 00:33:23;;;;;;;14.40;10.18;;;;;;;14.54;72.61;100339.75;348184;28;1338;-74
2022/10/10 00:33:33;;;;;;;12.87;8.43;;;;;;;14.54;72.37;100339.75;344611;28;1228;-74
2022/10/10 00:33:43;;;;;;;13.02;8.90;;;;;;;14.56;72.42;100338.78;345963;28;1188;-74
2022/10/10 00:33:54;;;;;;;14.07;9.70;;;;;;;14.57;72.24;100337.00;348056;28;1610;-74
2022/10/10 00:34:04;;;;;;;13.05;9.25;;;;;;;14.59;72.19;100337.78;347234;28;1727;-74
2022/10/10 00:34:15;;;;;;;12.70;8.70;;;;;;;14.58;72.28;100336.06;346261;28;916;-74
2022/10/10 00:34:25;;;;;;;12.15;8.10;;;;;;;14.59;72.35;100335.16;342510;28;1073;-74
2022/10/10 00:34:35;;;;;;;13.00;8.63;;;;;;;14.57;72.32;100339.63;341325;28;996;-74
2022/10/10 00:34:46;;;;;;;13.95;9.88;;;;;;;14.58;72.35;100336.06;340534;29;1351;-74
2022/10/10 00:34:56;;;;;;;13.90;9.90;;;;;;;14.57;72.35;100337.84;340344;28;1330;-74
2022/10/10 00:35:07;;;;;;;14.02;10.15;;;;;;;14.57;72.34;100335.22;342358;28;1377;-74
2022/10/10 00:35:17;;;;;;;14.27;9.87;;;;;;;14.57;72.13;100335.22;343359;28;901;-74
2022/10/10 00:35:28;;;;;;;14.02;9.77;;;;;;;14.57;72.30;100331.72;337786;29;1355;-76
2022/10/10 00:35:38;;;;;;;13.67;9.53;;;;;;;14.56;72.33;100333.50;337551;28;1827;-75
2022/10/10 00:35:49;;;;;;;14.43;9.88;;;;;;;14.58;72.28;100336.94;341764;28;1909;-75
2022/10/10 00:35:59;;;;;;;14.83;10.17;;;;;;;14.60;72.14;100336.84;338055;29;1414;-75
2022/10/10 00:36:09;;;;;;;15.68;10.98;;;;;;;14.58;72.06;100336.94;333968;29;1250;-75
2022/10/10 00:36:20;;;;;;;14.57;9.87;;;;;;;14.58;72.42;100339.56;339289;29;902;-75
2022/10/10 00:36:30;;;;;;;13.73;9.20;;;;;;;14.58;72.54;100331.66;337993;29;790;-75
2022/10/10 00:36:41;;;;;;;12.97;8.40;;;;;;;14.57;72.52;100340.47;335298;29;1286;-75
2022/10/10 00:36:51;;;;;;;12.20;8.48;;;;;;;14.58;72.56;100336.06;332962;29;1389;-75
2022/10/10 00:37:02;;;;;;;14.40;9.70;;;;;;;14.56;72.43;100337.91;331742;29;911;-75
2022/10/10 00:37:12;;;;;;;14.82;9.82;;;;;;;14.55;72.40;100328.31;327171;29;1845;-75
2022/10/10 00:37:22;;;;;;;15.30;9.90;;;;;;;14.55;72.21;100342.34;327176;29;1762;-75
2022/10/10 00:37:33;;;;;;;12.48;8.27;;;;;;;14.55;72.31;100336.22;327971;30;911;-75
2022/10/10 00:37:43;;;;;;;12.83;8.60;;;;;;;14.56;72.32;100343.19;327545;29;2051;-75
2022/10/10 00:37:54;;;;;;;12.00;7.85;;;;;;;14.55;72.24;100331.78;324089;30;1776;-75
2022/10/10 00:38:04;;;;;;;17.40;9.13;;;;;;;14.55;72.37;100341.47;321857;30;1756;-75
2022/10/10 00:38:15;;;;;;;17.52;9.10;;;;;;;14.55;72.16;100333.56;323374;30;1166;-75
2022/10/10 00:38:25;;;;;;;17.97;9.30;;;;;;;14.55;72.18;100341.47;324106;30;845;-74
2022/10/10 00:38:35;;;;;;;12.70;7.95;;;;;;;14.54;72.29;100345.03;323547;30;1377;-74
2022/10/10 00:38:46;;;;;;;46.97;10.23;;;;;;;14.53;72.30;100338.91;318251;31;1774;-74
2022/10/10 00:38:56;;;;;;;46.92;10.38;;;;;;;14.52;72.39;100344.25;317932;30;3399;-74
2022/10/10 00:39:07;;;;;;;47.80;11.10;;;;;;;14.50;72.39;100338.19;316020;30;5046;-74
2022/10/10 00:39:17;;;;;;;12.27;8.35;;;;;;;14.49;72.62;100339.97;315770;31;5278;-75
2022/10/10 00:39:27;;;;;;;14.70;9.77;;;;;;;14.48;72.47;100343.53;319156;30;2282;-75
2022/10/10 00:39:38;;;;;;;16.33;10.20;;;;;;;14.48;72.54;100340.03;318324;30;2971;-75
2022/10/10 00:39:48;;;;;;;18.17;11.03;;;;;;;14.50;72.59;100341.69;316632;31;1219;-75
2022/10/10 00:39:59;;;;;;;16.47;10.03;;;;;;;14.49;72.87;100337.34;318964;30;2447;-74
2022/10/10 00:40:10;;;;;;;14.45;9.07;;;;;;;14.51;72.26;100334.63;322021;30;2267;-74
2022/10/10 00:40:21;;;;;;;14.07;9.77;;;;;;;14.52;72.52;100334.56;321810;30;1596;-74
2022/10/10 00:40:31;;;;;;;13.88;9.75;;;;;;;14.51;72.54;100335.50;321858;30;1208;-74
2022/10/10 00:40:49;;;;;;;14.15;9.77;;;;;;;14.51;72.36;100345.16;318443;30;1402;-76
2022/10/10 00:40:59;;;;;;;13.02;8.27;;;;;;;14.50;72.53;100343.47;313191;31;787;-76
2022/10/10 00:41:10;;;;;;;13.02;8.50;;;;;;;14.49;72.62;100347.03;312776;31;2566;-76
2022/10/10 00:41:21;;;;;;;13.73;9.00;;;;;;;14.48;72.43;100345.31;311085;31;2866;-76
2022/10/10 00:41:31;;;;;;;12.75;8.77;;;;;;;14.50;72.27;100338.19;310677;31;984;-75
2022/10/10 00:41:41;;;;;;;12.40;8.55;;;;;;;14.50;72.71;100349.59;311020;31;3176;-75
2022/10/10 00:41:52;;;;;;;12.50;8.50;;;;;;;14.50;72.29;100332.94;308097;31;3120;-75
2022/10/10 00:42:02;;;;;;;14.73;10.15;;;;;;;14.50;72.61;100338.19;305149;32;1338;-75
2022/10/10 00:42:14;;;;;;;14.37;10.10;;;;;;;14.47;72.36;100341.81;311131;31;3550;-75
2022/10/10 00:42:24;;;;;;;14.93;11.13;;;;;;;14.47;72.21;100338.31;308384;31;3052;-75
2022/10/10 00:42:35;;;;;;;14.83;11.53;;;;;;;14.46;72.30;100342.75;307130;31;2207;-75
2022/10/10 00:42:45;;;;;;;15.38;11.95;;;;;;;14.46;72.50;100341.88;308355;32;1471;-75
2022/10/10 00:42:55;;;;;;;15.27;11.03;;;;;;;14.45;72.54;100341.03;306540;32;2335;-75
2022/10/10 00:43:08;;;;;;;14.85;10.25;;;;;;;14.42;72.16;100341.16;307514;31;2562;-75
2022/10/10 00:43:19;;;;;;;14.00;10.57;;;;;;;14.43;72.54;100342.03;310518;31;1192;-75
2022/10/10 00:43:30;;;;;;;15.02;10.90;;;;;;;14.43;72.47;100342.03;308433;32;824;-75
2022/10/10 00:43:40;;;;;;;25.40;10.60;;;;;;;14.42;72.49;100345.56;307379;31;4338;-75
2022/10/10 00:44:07;;;;;;;25.10;10.02;;;;;;;14.43;72.37;100342.03;308257;31;4654;-75
2022/10/10 00:44:17;;;;;;;12.43;8.88;;;;;;;14.43;72.55;100347.28;301014;32;995;-75
2022/10/10 00:44:28;;;;;;;12.23;8.30;;;;;;;14.43;72.36;100342.03;298090;32;4604;-75
2022/10/10 00:44:39;;;;;;;15.02;11.13;;;;;;;14.42;72.59;100341.16;298459;32;4444;-75
2022/10/10 00:45:23;;;;;;;15.07;10.90;;;;;;;14.44;72.62;100339.31;295030;33;3156;-75
2022/10/10 00:45:34;;;;;;;11.27;7.72;;;;;;;14.47;72.13;100340.97;292910;33;1423;-74
2022/10/10 00:45:45;;;;;;;11.53;7.80;;;;;;;14.45;72.27;100341.03;288123;34;1067;-74
2022/10/10 00:45:55;;;;;;;12.68;8.98;;;;;;;14.46;72.34;100347.16;291008;33;6533;-75
2022/10/10 00:46:06;;;;;;;13.05;9.52;;;;;;;14.45;72.07;100348.06;291424;33;7011;-74
2022/10/10 00:46:16;;;;;;;14.43;11.30;;;;;;;14.46;72.39;100341.88;289107;34;935;-74
2022/10/10 00:46:26;;;;;;;14.45;10.85;;;;;;;14.46;72.22;100336.63;285827;34;6702;-74
2022/10/10 00:46:37;;;;;;;14.10;10.23;;;;;;;14.46;72.39;100337.47;285215;34;6501;-74
2022/10/10 00:46:47;;;;;;;14.32;10.27;;;;;;;14.45;72.39;100334.91;288158;34;1429;-75
2022/10/10 00:46:58;;;;;;;15.00;10.93;;;;;;;14.43;72.33;100340.25;288258;34;5935;-75
2022/10/10 00:47:08;;;;;;;58.25;12.13;;;;;;;14.41;72.18;100334.19;288710;33;4238;-74
2022/10/10 00:47:19;;;;;;;58.10;11.80;;;;;;;14.31;72.54;100333.72;289731;34;1075;-74
2022/10/10 00:47:29;;;;;;;35.95;10.77;;;;;;;14.30;72.80;100336.41;282580;34;1279;-74
2022/10/10 00:47:40;;;;;;;15.87;10.23;;;;;;;14.26;72.65;100333.09;281690;34;6677;-74
2022/10/10 00:47:51;;;;;;;15.45;9.85;;;;;;;14.27;72.69;100342.69;279035;34;7665;-75
2022/10/10 00:49:30;;;;;;;18.54;11.70;;;;;;;14.28;72.80;100339.16;2489825;27;20726;-74
2022/10/10 00:49:42;;;;;;;14.20;8.82;;;;;;;14.30;72.77;100346.94;352691;28;1670;-75
2022/10/10 00:49:52;;;;;;;16.23;9.20;;;;;;;14.31;72.71;100343.38;348779;28;822;-75
2022/10/10 00:50:03;;;;;;;16.50;9.67;;;;;;;14.32;72.75;100345.94;345991;28;1462;-75
2022/10/10 00:50:13;;;;;;;16.10;9.50;;;;;;;14.32;72.67;100345.94;344958;28;1468;-75
2022/10/10 00:50:24;;;;;;;14.30;8.65;;;;;;;14.31;72.85;100338.13;346326;28;1358;-74
2022/10/10 00:50:40;;;;;;;14.77;8.67;;;;;;;14.27;72.80;100347.97;345575;28;1322;-74
2022/10/10 00:50:55;;;;;;;16.08;10.95;;;;;;;14.24;72.80;100348.09;347553;28;1277;-74
2022/10/10 00:51:13;;;;;;;16.80;11.38;;;;;;;14.25;72.56;100344.53;347284;28;907;-74
2022/10/10 00:51:23;;;;;;;15.13;9.10;;;;;;;14.25;72.77;100339.28;344482;28;1528;-75
2022/10/10 00:51:34;;;;;;;16.53;9.23;;;;;;;14.27;72.50;100347.97;344208;28;1229;-75
2022/10/10 00:51:45;;;;;;;17.70;10.18;;;;;;;14.26;72.40;100351.53;346059;28;927;-75
2022/10/10 00:51:56;;;;;;;17.45;10.68;;;;;;;14.29;72.43;100350.53;347159;28;1689;-75
2022/10/10 00:52:08;;;;;;;26.55;11.50;;;;;;;14.27;72.21;100345.34;348707;28;1344;-74
2022/10/10 00:52:18;;;;;;;25.63;10.15;;;;;;;14.28;72.44;100348.81;344800;28;864;-74
2022/10/10 00:52:29;;;;;;;22.00;9.90;;;;;;;14.26;72.09;100351.53;345992;28;1176;-74
2022/10/10 00:52:39;;;;;;;16.23;11.00;;;;;;;14.28;72.05;100349.69;347360;28;1349;-74
2022/10/10 00:52:50;;;;;;;16.63;11.70;;;;;;;14.28;72.48;100347.03;347310;28;1205;-74
2022/10/10 00:53:00;;;;;;;17.42;12.77;;;;;;;14.29;72.19;100351.38;347144;28;1038;-74
2022/10/10 00:53:11;;;;;;;17.10;11.40;;;;;;;14.30;71.65;100347.78;345733;28;1620;-74
2022/10/10 00:53:30;;;;;;;18.95;12.15;;;;;;;14.30;72.10;100346.94;346790;28;1431;-74
2022/10/10 00:53:43;;;;;;;16.50;10.20;;;;;;;14.30;72.21;100341.69;348422;28;1416;-74
2022/10/10 00:54:01;;;;;;;14.98;8.77;;;;;;;14.30;72.09;100353.06;348641;28;1410;-74
2022/10/10 00:54:12;;;;;;;15.02;10.50;;;;;;;14.29;72.16;100340.84;348217;28;1023;-74
2022/10/10 00:54:23;;;;;;;15.98;11.02;;;;;;;14.28;71.94;100348.81;346489;28;853;-74
2022/10/10 00:54:33;;;;;;;16.63;11.02;;;;;;;14.28;72.38;100341.78;344697;28;1381;-74
2022/10/10 00:54:44;;;;;;;15.57;9.50;;;;;;;14.29;72.16;100347.91;343243;28;1310;-74
2022/10/10 00:54:54;;;;;;;17.27;10.40;;;;;;;14.28;72.24;100344.41;345294;28;1603;-74
2022/10/10 00:55:05;;;;;;;16.43;9.67;;;;;;;14.30;71.88;100347.78;344529;28;1205;-74
2022/10/10 00:55:15;;;;;;;16.25;9.45;;;;;;;14.35;72.74;100349.38;346081;28;794;-74